Time,TemperatureF,DewpointF,PressureIn,WindDirection,WindDirectionDegrees,WindSpeedMPH,WindSpeedGustMPH,Humidity,HourlyPrecipIn,Conditions,Clouds,dailyrainin,SoftwareType,DateUTC
2013-04-26 00:01:00,49.3,39.3,30.23,NW,312,0.0,0.0,68,0.00,,CLR,0.00,VWS V14.00,2013-04-26 04:01:00,
2013-04-26 00:06:00,36.8,26.7,30.23,NW,312,0.0,0.0,67,0.00,,CLR,0.00,VWS V14.00,2013-04-26 04:06:00,
2013-04-26 00:11:00,35.2,26.3,30.23,NW,312,0.0,0.0,70,0.00,,CLR,0.00,VWS V14.00,2013-04-26 04:11:00,
2013-04-26 00:16:00,37.6,28.6,30.23,NW,312,0.0,0.0,70,0.00,,CLR,0.00,VWS V14.00,2013-04-26 04:16:00,
2013-04-26 00:21:00,36.4,28.5,30.23,NW,312,0.0,0.0,73,0.00,,CLR,0.00,VWS V14.00,2013-04-26 04:21:00,
2013-04-26 00:26:00,33.2,26.4,30.23,NW,312,0.0,0.0,76,0.00,,CLR,0.00,VWS V14.00,2013-04-26 04:26:00,
2013-04-26 00:31:00,47.4,40.8,30.24,NW,312,0.0,0.0,78,0.00,,CLR,0.00,VWS V14.00,2013-04-26 04:31:00,
2013-04-26 00:36:00,35.5,30.4,30.24,NW,312,0.0,0.0,82,0.00,,CLR,0.00,VWS V14.00,2013-04-26 04:36:00,
2013-04-26 00:41:00,45.6,40.8,30.24,NW,312,0.0,0.0,83,0.00,,CLR,0.00,VWS V14.00,2013-04-26 04:41:00,
2013-04-26 00:46:00,45.5,41.1,30.24,NW,312,0.0,0.0,85,0.00,,CLR,0.00,VWS V14.00,2013-04-26 04:46:00,
2013-04-26 00:51:00,46.1,41.6,30.24,NW,312,0.0,0.0,84,0.00,,CLR,0.00,VWS V14.00,2013-04-26 04:51:00,
2013-04-26 00:56:00,46.4,42.9,30.25,NW,312,0.0,0.0,87,0.00,,CLR,0.00,VWS V14.00,2013-04-26 04:56:00,
2013-04-26 01:01:00,46.6,43.5,30.25,NW,312,0.0,0.0,89,0.00,,CLR,0.00,VWS V14.00,2013-04-26 05:01:00,
2013-04-26 01:06:00,46.2,42.6,30.25,NW,312,0.0,0.0,87,0.00,,CLR,0.00,VWS V14.00,2013-04-26 05:06:00,
2013-04-26 01:11:00,46.1,42.3,30.25,NW,312,0.0,0.0,87,0.00,,CLR,0.00,VWS V14.00,2013-04-26 05:11:00,
2013-04-26 01:16:00,46.1,42.8,30.25,NW,312,0.0,0.0,88,0.00,,CLR,0.00,VWS V14.00,2013-04-26 05:16:00,
2013-04-26 01:21:00,46.0,42.4,30.25,NW,312,0.0,0.0,87,0.00,,CLR,0.00,VWS V14.00,2013-04-26 05:21:00,
2013-04-26 01:26:00,46.0,41.7,30.25,NW,312,0.0,0.0,85,0.00,,CLR,0.00,VWS V14.00,2013-04-26 05:26:00,
2013-04-26 01:31:00,46.2,41.5,30.25,NW,312,0.0,0.0,84,0.00,,CLR,0.00,VWS V14.00,2013-04-26 05:31:00,
2013-04-26 01:36:00,46.4,40.8,30.25,NW,312,0.0,0.0,81,0.00,,CLR,0.00,VWS V14.00,2013-04-26 05:36:00,
2013-04-26 01:41:00,46.7,40.6,30.25,NW,312,0.0,0.0,79,0.00,,CLR,0.00,VWS V14.00,2013-04-26 05:41:00,
2013-04-26 01:46:00,46.7,40.7,30.26,NW,312,0.0,0.0,80,0.00,,CLR,0.00,VWS V14.00,2013-04-26 05:46:00,
2013-04-26 01:51:00,46.7,38.8,30.25,NW,312,0.0,0.0,74,0.00,,CLR,0.00,VWS V14.00,2013-04-26 05:51:00,
2013-04-26 01:56:00,47.1,37.3,30.25,NW,312,0.0,0.0,69,0.00,,CLR,0.00,VWS V14.00,2013-04-26 05:56:00,
2013-04-26 02:01:00,47.5,36.7,30.25,NW,312,0.0,0.0,66,0.00,,CLR,0.00,VWS V14.00,2013-04-26 06:01:00,
2013-04-26 02:06:00,47.8,36.2,30.25,NW,312,0.0,0.0,64,0.00,,CLR,0.00,VWS V14.00,2013-04-26 06:06:00,
2013-04-26 02:11:00,47.9,36.1,30.25,NW,312,0.0,0.0,63,0.00,,CLR,0.00,VWS V14.00,2013-04-26 06:11:00,
2013-04-26 02:16:00,47.7,35.7,30.25,NW,312,0.0,0.0,63,0.00,,CLR,0.00,VWS V14.00,2013-04-26 06:16:00,
2013-04-26 02:21:00,47.7,35.4,30.25,NW,312,0.0,0.0,62,0.00,,CLR,0.00,VWS V14.00,2013-04-26 06:21:00,
2013-04-26 02:26:00,47.7,35.8,30.25,NW,312,0.0,0.0,63,0.00,,CLR,0.00,VWS V14.00,2013-04-26 06:26:00,
2013-04-26 02:31:00,47.7,36.1,30.25,NW,312,0.0,0.0,64,0.00,,CLR,0.00,VWS V14.00,2013-04-26 06:31:00,
2013-04-26 02:36:00,47.4,36.1,30.26,NW,312,0.0,0.0,65,0.00,,CLR,0.00,VWS V14.00,2013-04-26 06:36:00,
2013-04-26 02:41:00,47.3,36.5,30.25,NW,312,0.0,0.0,66,0.00,,CLR,0.00,VWS V14.00,2013-04-26 06:41:00,
2013-04-26 02:46:00,47.1,36.8,30.25,NW,312,0.0,0.0,67,0.00,,CLR,0.00,VWS V14.00,2013-04-26 06:46:00,
2013-04-26 02:51:00,46.8,37.1,30.26,NW,312,0.0,0.0,69,0.00,,CLR,0.00,VWS V14.00,2013-04-26 06:51:00,
2013-04-26 02:56:00,46.3,37.1,30.25,NW,312,0.0,0.0,70,0.00,,CLR,0.00,VWS V14.00,2013-04-26 06:56:00,
2013-04-26 03:01:00,45.8,37.0,30.25,NW,312,0.0,0.0,71,0.00,,CLR,0.00,VWS V14.00,2013-04-26 07:01:00,
2013-04-26 03:06:00,45.7,36.8,30.25,NW,312,0.0,0.0,71,0.00,,CLR,0.00,VWS V14.00,2013-04-26 07:06:00,
2013-04-26 03:11:00,45.7,37.5,30.25,NW,312,0.0,0.0,73,0.00,,CLR,0.00,VWS V14.00,2013-04-26 07:11:00,
2013-04-26 03:16:00,45.0,38.0,30.25,NW,312,0.0,0.0,76,0.00,,CLR,0.00,VWS V14.00,2013-04-26 07:16:00,
2013-04-26 03:21:00,45.0,37.7,30.25,NW,312,0.0,0.0,75,0.00,,CLR,0.00,VWS V14.00,2013-04-26 07:21:00,
2013-04-26 03:26:00,44.6,37.0,30.25,NW,312,0.0,0.0,75,0.00,,CLR,0.00,VWS V14.00,2013-04-26 07:26:00,
2013-04-26 03:31:00,44.6,38.0,30.25,NW,312,0.0,0.0,77,0.00,,CLR,0.00,VWS V14.00,2013-04-26 07:31:00,
2013-04-26 03:36:00,43.0,36.8,30.25,NW,312,0.0,0.0,79,0.00,,CLR,0.00,VWS V14.00,2013-04-26 07:36:00,
2013-04-26 03:41:00,42.6,36.9,30.26,NW,312,0.0,0.0,80,0.00,,CLR,0.00,VWS V14.00,2013-04-26 07:41:00,
2013-04-26 03:46:00,43.2,37.8,30.25,NW,312,0.0,0.0,81,0.00,,CLR,0.00,VWS V14.00,2013-04-26 07:46:00,
2013-04-26 03:51:00,40.8,35.7,30.25,NW,312,0.0,0.0,82,0.00,,CLR,0.00,VWS V14.00,2013-04-26 07:51:00,
2013-04-26 03:56:00,39.2,34.5,30.26,NW,312,0.0,0.0,83,0.00,,CLR,0.00,VWS V14.00,2013-04-26 07:56:00,
2013-04-26 04:01:00,39.0,34.7,30.26,NW,312,0.0,0.0,84,0.00,,CLR,0.00,VWS V14.00,2013-04-26 08:01:00,
2013-04-26 04:06:00,37.3,33.4,30.26,NW,312,0.0,0.0,86,0.00,,CLR,0.00,VWS V14.00,2013-04-26 08:06:00,
2013-04-26 04:11:00,36.6,33.0,30.26,NW,312,0.0,0.0,87,0.00,,CLR,0.00,VWS V14.00,2013-04-26 08:11:00,
2013-04-26 04:16:00,39.0,36.0,30.26,NW,312,0.0,0.0,89,0.00,,CLR,0.00,VWS V14.00,2013-04-26 08:16:00,
2013-04-26 04:21:00,39.3,36.6,30.26,NW,312,0.0,0.0,90,0.00,,CLR,0.00,VWS V14.00,2013-04-26 08:21:00,
2013-04-26 04:26:00,38.5,36.0,30.26,NW,312,0.0,0.0,90,0.00,,CLR,0.00,VWS V14.00,2013-04-26 08:26:00,
2013-04-26 04:31:00,36.7,34.4,30.26,NW,312,0.0,0.0,91,0.00,,CLR,0.00,VWS V14.00,2013-04-26 08:31:00,
2013-04-26 04:36:00,39.8,37.6,30.26,NW,312,0.0,0.0,92,0.00,,CLR,0.00,VWS V14.00,2013-04-26 08:36:00,
2013-04-26 04:41:00,40.0,38.1,30.26,NW,312,0.0,0.0,93,0.00,,CLR,0.00,VWS V14.00,2013-04-26 08:41:00,
2013-04-26 04:46:00,40.1,38.4,30.26,NW,312,0.0,0.0,94,0.00,,CLR,0.00,VWS V14.00,2013-04-26 08:46:00,
2013-04-26 04:51:00,40.5,38.8,30.27,NW,312,0.0,0.0,93,0.00,,CLR,0.00,VWS V14.00,2013-04-26 08:51:00,
2013-04-26 04:56:00,40.4,38.7,30.27,NW,312,0.0,0.0,94,0.00,,CLR,0.00,VWS V14.00,2013-04-26 08:56:00,
2013-04-26 05:01:00,39.8,38.3,30.26,NW,312,0.0,0.0,94,0.00,,CLR,0.00,VWS V14.00,2013-04-26 09:01:00,
2013-04-26 05:06:00,39.3,37.8,30.27,NW,312,0.0,0.0,94,0.00,,CLR,0.00,VWS V14.00,2013-04-26 09:06:00,
2013-04-26 05:11:00,38.9,37.5,30.27,NW,312,0.0,0.0,95,0.00,,CLR,0.00,VWS V14.00,2013-04-26 09:11:00,
2013-04-26 05:16:00,38.3,37.0,30.27,NW,312,0.0,0.0,95,0.00,,CLR,0.00,VWS V14.00,2013-04-26 09:16:00,
2013-04-26 05:21:00,38.3,37.0,30.27,NW,312,0.0,0.0,95,0.00,,CLR,0.00,VWS V14.00,2013-04-26 09:21:00,
2013-04-26 05:26:00,37.9,36.6,30.27,NW,312,0.0,0.0,95,0.00,,CLR,0.00,VWS V14.00,2013-04-26 09:26:00,
2013-04-26 05:31:00,39.4,38.0,30.27,NW,312,0.0,0.0,94,0.00,,CLR,0.00,VWS V14.00,2013-04-26 09:31:00,
2013-04-26 05:36:00,39.6,38.0,30.28,NW,312,0.0,0.0,94,0.00,,CLR,0.00,VWS V14.00,2013-04-26 09:36:00,
2013-04-26 05:41:00,39.5,37.8,30.28,NW,312,0.0,0.0,94,0.00,,CLR,0.00,VWS V14.00,2013-04-26 09:41:00,
2013-04-26 05:46:00,39.7,38.2,30.28,NW,312,0.0,0.0,94,0.00,,CLR,0.00,VWS V14.00,2013-04-26 09:46:00,
2013-04-26 05:51:00,39.8,38.4,30.28,NW,312,0.0,0.0,95,0.00,,CLR,0.00,VWS V14.00,2013-04-26 09:51:00,
2013-04-26 05:56:00,39.8,38.4,30.28,NW,312,0.0,0.0,95,0.00,,CLR,0.00,VWS V14.00,2013-04-26 09:56:00,
2013-04-26 06:01:00,39.8,38.6,30.28,NW,312,0.0,0.0,95,0.00,,CLR,0.00,VWS V14.00,2013-04-26 10:01:00,
2013-04-26 06:06:00,39.9,38.8,30.28,NW,312,0.0,0.0,96,0.00,,CLR,0.00,VWS V14.00,2013-04-26 10:06:00,
2013-04-26 06:11:00,39.8,38.7,30.28,NW,312,0.0,0.0,96,0.00,,CLR,0.00,VWS V14.00,2013-04-26 10:11:00,
2013-04-26 06:16:00,39.6,38.6,30.28,NW,312,0.0,0.0,96,0.00,,CLR,0.00,VWS V14.00,2013-04-26 10:16:00,
2013-04-26 06:21:00,39.5,38.5,30.29,NW,312,0.0,0.0,96,0.00,,CLR,0.00,VWS V14.00,2013-04-26 10:21:00,
2013-04-26 06:26:00,39.5,38.6,30.30,NW,312,0.0,0.0,97,0.00,,CLR,0.00,VWS V14.00,2013-04-26 10:26:00,
2013-04-26 06:31:00,39.6,38.7,30.30,NW,312,0.0,0.0,97,0.00,,CLR,0.00,VWS V14.00,2013-04-26 10:31:00,
2013-04-26 06:36:00,39.7,38.8,30.30,NW,312,0.0,0.0,97,0.00,,CLR,0.00,VWS V14.00,2013-04-26 10:36:00,
2013-04-26 06:41:00,40.0,38.9,30.30,NW,312,0.0,0.0,96,0.00,,CLR,0.00,VWS V14.00,2013-04-26 10:41:00,
2013-04-26 06:47:00,40.1,38.7,30.30,NW,312,0.0,0.0,95,0.00,,CLR,0.00,VWS V14.00,2013-04-26 10:47:00,
2013-04-26 06:52:00,40.2,38.7,30.31,NW,312,0.0,0.0,94,0.00,,CLR,0.00,VWS V14.00,2013-04-26 10:52:00,
2013-04-26 06:57:00,40.4,39.2,30.31,NW,312,0.0,0.0,95,0.00,,CLR,0.00,VWS V14.00,2013-04-26 10:57:00,
2013-04-26 07:02:00,40.7,39.6,30.31,NW,312,0.0,0.0,96,0.00,,CLR,0.00,VWS V14.00,2013-04-26 11:02:00,
2013-04-26 07:07:00,40.9,39.7,30.31,NW,312,0.0,0.0,96,0.00,,CLR,0.00,VWS V14.00,2013-04-26 11:07:00,
2013-04-26 07:12:00,40.8,39.5,30.32,NW,312,0.0,0.0,95,0.00,,CLR,0.00,VWS V14.00,2013-04-26 11:12:00,
2013-04-26 07:17:00,41.4,39.8,30.33,NW,312,0.0,0.0,94,0.00,,CLR,0.00,VWS V14.00,2013-04-26 11:17:00,
2013-04-26 07:22:00,39.9,37.8,30.33,NW,312,0.0,0.0,92,0.00,,CLR,0.00,VWS V14.00,2013-04-26 11:22:00,
2013-04-26 07:27:00,36.5,33.5,30.33,NW,312,0.0,0.0,89,0.00,,CLR,0.00,VWS V14.00,2013-04-26 11:27:00,
2013-04-26 07:32:00,39.1,34.7,30.33,NW,312,0.0,0.0,84,0.00,,CLR,0.00,VWS V14.00,2013-04-26 11:32:00,
2013-04-26 07:37:00,43.4,38.7,30.34,NW,312,0.0,0.0,83,0.00,,CLR,0.00,VWS V14.00,2013-04-26 11:37:00,
2013-04-26 07:42:00,43.8,39.2,30.34,NW,312,0.0,0.0,84,0.00,,CLR,0.00,VWS V14.00,2013-04-26 11:42:00,
2013-04-26 07:47:00,43.4,39.1,30.34,NW,312,0.0,0.0,85,0.00,,CLR,0.00,VWS V14.00,2013-04-26 11:47:00,
2013-04-26 07:52:00,42.7,38.5,30.34,NW,312,0.0,0.0,85,0.00,,CLR,0.00,VWS V14.00,2013-04-26 11:52:00,
2013-04-26 07:57:00,43.7,39.6,30.34,NW,312,0.0,0.0,85,0.00,,CLR,0.00,VWS V14.00,2013-04-26 11:57:00,
2013-04-26 08:02:00,43.3,38.7,30.35,NW,312,0.0,0.0,84,0.00,,CLR,0.00,VWS V14.00,2013-04-26 12:02:00,
2013-04-26 08:07:00,43.3,38.2,30.35,NW,312,0.0,0.0,82,0.00,,CLR,0.00,VWS V14.00,2013-04-26 12:07:00,
2013-04-26 08:12:00,43.5,38.1,30.35,NW,312,0.0,0.0,81,0.00,,CLR,0.00,VWS V14.00,2013-04-26 12:12:00,
2013-04-26 08:17:00,41.8,35.6,30.35,NW,312,0.0,0.0,78,0.00,,CLR,0.00,VWS V14.00,2013-04-26 12:17:00,
2013-04-26 08:22:00,48.2,40.7,30.35,NNE,20,0.0,2.2,75,0.00,,CLR,0.00,VWS V14.00,2013-04-26 12:22:00,
2013-04-26 08:27:00,49.2,40.6,30.36,NNE,20,0.0,2.2,72,0.00,,CLR,0.00,VWS V14.00,2013-04-26 12:27:00,
2013-04-26 08:32:00,49.5,40.7,30.36,NNE,20,0.0,0.0,72,0.00,,CLR,0.00,VWS V14.00,2013-04-26 12:32:00,
2013-04-26 08:37:00,50.0,40.5,30.36,NNE,20,0.0,0.0,70,0.00,,CLR,0.00,VWS V14.00,2013-04-26 12:37:00,
2013-04-26 08:42:00,50.4,40.5,30.36,NNE,20,0.0,0.0,69,0.00,,CLR,0.00,VWS V14.00,2013-04-26 12:42:00,
2013-04-26 08:47:00,50.6,39.6,30.36,NNW,332,0.0,4.3,66,0.00,,CLR,0.00,VWS V14.00,2013-04-26 12:47:00,
2013-04-26 08:52:00,50.7,39.5,30.37,NNW,332,0.0,4.3,65,0.00,,CLR,0.00,VWS V14.00,2013-04-26 12:52:00,
2013-04-26 08:57:00,51.2,39.7,30.37,NNW,332,0.0,4.3,65,0.00,,CLR,0.00,VWS V14.00,2013-04-26 12:57:00,
2013-04-26 09:02:00,51.2,39.5,30.37,North,354,0.0,0.0,64,0.00,,CLR,0.00,VWS V14.00,2013-04-26 13:02:00,
2013-04-26 09:07:00,51.2,38.3,30.37,North,354,0.0,0.0,61,0.00,,CLR,0.00,VWS V14.00,2013-04-26 13:07:00,
2013-04-26 09:12:00,51.2,38.3,30.36,NNE,21,0.0,2.1,61,0.00,,CLR,0.00,VWS V14.00,2013-04-26 13:12:00,
2013-04-26 09:17:00,51.4,38.3,30.37,NNE,21,0.0,0.0,61,0.00,,CLR,0.00,VWS V14.00,2013-04-26 13:17:00,
2013-04-26 09:22:00,52.7,38.8,30.37,NNE,21,0.0,2.9,59,0.00,,CLR,0.00,VWS V14.00,2013-04-26 13:22:00,
2013-04-26 09:27:00,53.9,37.9,30.37,ENE,60,0.0,6.3,55,0.00,,CLR,0.00,VWS V14.00,2013-04-26 13:27:00,
2013-04-26 09:32:00,55.0,37.4,30.37,NE,37,5.8,7.7,51,0.00,,CLR,0.00,VWS V14.00,2013-04-26 13:32:00,
2013-04-26 09:37:00,55.2,36.3,30.37,ESE,118,4.5,10.6,49,0.00,,CLR,0.00,VWS V14.00,2013-04-26 13:37:00,
2013-04-26 09:42:00,55.2,35.5,30.37,East,100,5.8,10.6,47,0.00,,CLR,0.00,VWS V14.00,2013-04-26 13:42:00,
2013-04-26 09:47:00,55.2,35.5,30.37,North,359,4.5,8.8,47,0.00,,CLR,0.00,VWS V14.00,2013-04-26 13:47:00,
2013-04-26 09:52:00,55.5,35.9,30.37,NNE,24,0.0,8.8,48,0.00,,CLR,0.00,VWS V14.00,2013-04-26 13:52:00,
2013-04-26 09:57:00,53.9,33.9,30.38,North,3,6.5,8.8,47,0.00,,CLR,0.00,VWS V14.00,2013-04-26 13:57:00,
2013-04-26 10:02:00,53.8,33.8,30.37,NNE,14,0.0,5.3,46,0.00,,CLR,0.00,VWS V14.00,2013-04-26 14:02:00,
2013-04-26 10:07:00,55.7,34.8,30.37,NE,34,0.0,7.8,45,0.00,,CLR,0.00,VWS V14.00,2013-04-26 14:07:00,
2013-04-26 10:12:00,55.7,34.3,30.38,NE,39,3.0,7.8,44,0.00,,CLR,0.00,VWS V14.00,2013-04-26 14:12:00,
2013-04-26 10:17:00,55.6,33.8,30.38,NE,41,0.0,0.0,44,0.00,,CLR,0.00,VWS V14.00,2013-04-26 14:17:00,
2013-04-26 10:22:00,55.5,33.6,30.37,NNE,20,5.0,7.1,43,0.00,,CLR,0.00,VWS V14.00,2013-04-26 14:22:00,
2013-04-26 10:27:00,55.8,34.2,30.37,NNE,20,3.3,7.1,44,0.00,,CLR,0.00,VWS V14.00,2013-04-26 14:27:00,
2013-04-26 10:32:00,56.2,33.9,30.37,NNE,14,3.2,6.8,43,0.00,,CLR,0.00,VWS V14.00,2013-04-26 14:32:00,
2013-04-26 10:37:00,56.3,33.5,30.37,North,8,0.0,6.8,42,0.00,,CLR,0.00,VWS V14.00,2013-04-26 14:37:00,
2013-04-26 10:42:00,55.2,33.2,30.37,SSE,148,6.3,7.5,43,0.00,,CLR,0.00,VWS V14.00,2013-04-26 14:42:00,
2013-04-26 10:47:00,56.1,31.8,30.37,ESE,110,8.8,9.3,39,0.00,,CLR,0.00,VWS V14.00,2013-04-26 14:47:00,
2013-04-26 10:52:00,57.2,33.9,30.37,NE,44,0.0,9.3,41,0.00,,CLR,0.00,VWS V14.00,2013-04-26 14:52:00,
2013-04-26 10:57:00,58.8,33.2,30.36,SE,125,5.6,14.2,38,0.00,,CLR,0.00,VWS V14.00,2013-04-26 14:57:00,
2013-04-26 11:02:00,57.4,31.4,30.37,SE,135,7.3,9.0,37,0.00,,CLR,0.00,VWS V14.00,2013-04-26 15:02:00,
2013-04-26 11:07:00,57.8,32.0,30.37,NE,55,6.3,12.5,38,0.00,,CLR,0.00,VWS V14.00,2013-04-26 15:07:00,
2013-04-26 11:12:00,57.6,33.2,30.37,ENE,68,9.3,12.5,40,0.00,,CLR,0.00,VWS V14.00,2013-04-26 15:12:00,
2013-04-26 11:20:00,58.4,33.7,30.37,NNE,22,4.8,4.8,39,0.00,,CLR,0.00,VWS V14.00,2013-04-26 15:20:00,
2013-04-26 11:25:00,60.2,34.8,30.37,East,84,7.4,7.7,38,0.00,,CLR,0.00,VWS V14.00,2013-04-26 15:25:00,
2013-04-26 11:30:00,60.6,35.8,30.37,East,87,0.0,7.9,39,0.00,,CLR,0.00,VWS V14.00,2013-04-26 15:30:00,
2013-04-26 11:35:00,60.8,35.1,30.37,NNE,24,0.0,8.1,38,0.00,,CLR,0.00,VWS V14.00,2013-04-26 15:35:00,
2013-04-26 11:40:00,60.8,34.5,30.36,ESE,110,6.8,10.3,37,0.00,,CLR,0.00,VWS V14.00,2013-04-26 15:40:00,
2013-04-26 11:45:00,60.9,35.2,30.36,East,91,0.0,10.3,38,0.00,,CLR,0.00,VWS V14.00,2013-04-26 15:45:00,
2013-04-26 11:50:00,61.0,35.8,30.36,North,354,0.0,7.8,39,0.00,,CLR,0.00,VWS V14.00,2013-04-26 15:50:00,
2013-04-26 11:55:00,61.5,36.0,30.35,North,359,5.7,7.8,38,0.00,,CLR,0.00,VWS V14.00,2013-04-26 15:55:00,
2013-04-26 12:00:00,61.4,36.2,30.35,East,97,0.0,7.8,39,0.00,,CLR,0.00,VWS V14.00,2013-04-26 16:00:00,
2013-04-26 12:05:00,61.1,35.1,30.35,East,93,0.0,8.9,38,0.00,,CLR,0.00,VWS V14.00,2013-04-26 16:05:00,
2013-04-26 12:10:00,61.4,35.5,30.35,ENE,69,0.0,8.9,38,0.00,,CLR,0.00,VWS V14.00,2013-04-26 16:10:00,
2013-04-26 12:15:00,60.9,34.7,30.35,NNE,27,0.0,0.0,37,0.00,,CLR,0.00,VWS V14.00,2013-04-26 16:15:00,
2013-04-26 12:20:00,57.1,30.4,30.35,ESE,107,4.8,7.8,36,0.00,,CLR,0.00,VWS V14.00,2013-04-26 16:20:00,
2013-04-26 12:25:00,57.4,30.8,30.35,ESE,107,0.0,7.8,36,0.00,,CLR,0.00,VWS V14.00,2013-04-26 16:25:00,
2013-04-26 12:30:00,61.5,34.8,30.35,ESE,107,0.0,0.0,37,0.00,,CLR,0.00,VWS V14.00,2013-04-26 16:30:00,
2013-04-26 12:35:00,63.6,35.1,30.35,South,170,7.0,8.1,34,0.00,,CLR,0.00,VWS V14.00,2013-04-26 16:35:00,
2013-04-26 12:40:00,62.1,34.8,30.35,North,6,0.0,8.1,36,0.00,,CLR,0.00,VWS V14.00,2013-04-26 16:40:00,
2013-04-26 12:45:00,62.6,34.2,30.35,SE,131,4.3,4.5,34,0.00,,CLR,0.00,VWS V14.00,2013-04-26 16:45:00,
2013-04-26 12:51:00,62.4,34.1,30.35,North,352,0.0,7.3,35,0.00,,CLR,0.00,VWS V14.00,2013-04-26 16:51:00,
2013-04-26 12:55:00,62.7,34.3,30.34,East,100,7.0,9.2,34,0.00,,CLR,0.00,VWS V14.00,2013-04-26 16:55:00,
2013-04-26 13:01:00,62.9,35.3,30.35,ESE,117,0.0,0.0,36,0.00,,CLR,0.00,VWS V14.00,2013-04-26 17:01:00,
2013-04-26 13:05:00,63.3,34.6,30.35,East,80,3.5,5.3,34,0.00,,CLR,0.00,VWS V14.00,2013-04-26 17:05:00,
2013-04-26 13:11:00,56.7,28.1,30.35,East,86,0.0,5.3,33,0.00,,CLR,0.00,VWS V14.00,2013-04-26 17:11:00,
2013-04-26 13:16:00,52.7,23.6,30.35,NW,307,0.0,0.0,32,0.00,,CLR,0.00,VWS V14.00,2013-04-26 17:16:00,
2013-04-26 13:21:00,53.2,25.2,30.35,East,83,0.0,5.8,34,0.00,,CLR,0.00,VWS V14.00,2013-04-26 17:21:00,
2013-04-26 13:26:00,51.3,24.0,30.35,SSE,148,0.0,6.6,34,0.00,,CLR,0.00,VWS V14.00,2013-04-26 17:26:00,
2013-04-26 13:31:00,55.3,27.1,30.34,SSE,148,0.0,0.0,34,0.00,,CLR,0.00,VWS V14.00,2013-04-26 17:31:00,
2013-04-26 13:36:00,59.7,30.1,30.34,ESE,111,8.2,9.4,32,0.00,,CLR,0.00,VWS V14.00,2013-04-26 17:36:00,
2013-04-26 13:41:00,60.8,30.6,30.34,NE,45,0.0,9.4,32,0.00,,CLR,0.00,VWS V14.00,2013-04-26 17:41:00,
2013-04-26 13:46:00,60.3,31.2,30.34,NNE,14,0.0,0.0,33,0.00,,CLR,0.00,VWS V14.00,2013-04-26 17:46:00,
2013-04-26 13:51:00,59.2,30.4,30.34,NW,326,0.0,3.4,33,0.00,,CLR,0.00,VWS V14.00,2013-04-26 17:51:00,
2013-04-26 13:56:00,59.5,28.7,30.34,NW,326,0.0,3.4,31,0.00,,CLR,0.00,VWS V14.00,2013-04-26 17:56:00,
2013-04-26 14:01:00,60.5,29.7,30.34,NW,326,0.0,0.0,31,0.00,,CLR,0.00,VWS V14.00,2013-04-26 18:01:00,
2013-04-26 14:06:00,59.3,29.4,30.34,East,94,0.0,4.2,32,0.00,,CLR,0.00,VWS V14.00,2013-04-26 18:06:00,
2013-04-26 14:11:00,64.0,33.7,30.34,SSW,202,0.0,7.8,32,0.00,,CLR,0.00,VWS V14.00,2013-04-26 18:11:00,
2013-04-26 14:16:00,63.0,31.9,30.33,ENE,72,0.0,0.0,31,0.00,,CLR,0.00,VWS V14.00,2013-04-26 18:16:00,
2013-04-26 14:21:00,64.0,33.5,30.33,ESE,114,0.0,8.1,32,0.00,,CLR,0.00,VWS V14.00,2013-04-26 18:21:00,
2013-04-26 14:26:00,63.8,33.5,30.33,NNE,21,0.0,8.1,32,0.00,,CLR,0.00,VWS V14.00,2013-04-26 18:26:00,
2013-04-26 14:31:00,64.0,33.3,30.33,NNE,13,0.0,0.0,32,0.00,,CLR,0.00,VWS V14.00,2013-04-26 18:31:00,
2013-04-26 14:36:00,64.7,34.2,30.33,NNE,13,2.7,5.2,32,0.00,,CLR,0.00,VWS V14.00,2013-04-26 18:36:00,
2013-04-26 14:41:00,63.7,33.2,30.33,NW,314,0.0,5.2,32,0.00,,CLR,0.00,VWS V14.00,2013-04-26 18:41:00,
2013-04-26 14:46:00,63.4,32.6,30.33,NW,314,6.8,6.8,31,0.00,,CLR,0.00,VWS V14.00,2013-04-26 18:46:00,
2013-04-26 14:51:00,61.7,32.5,30.33,NW,314,0.0,6.8,33,0.00,,CLR,0.00,VWS V14.00,2013-04-26 18:51:00,
2013-04-26 14:56:00,62.8,32.9,30.33,WNW,291,0.0,6.8,32,0.00,,CLR,0.00,VWS V14.00,2013-04-26 18:56:00,
2013-04-26 15:01:00,65.4,33.2,30.32,SSW,200,0.0,1.7,30,0.00,,CLR,0.00,VWS V14.00,2013-04-26 19:01:00,
2013-04-26 15:06:00,68.3,35.8,30.32,NW,309,0.0,3.0,30,0.00,,CLR,0.00,VWS V14.00,2013-04-26 19:06:00,
2013-04-26 15:11:00,68.1,35.8,30.32,NW,309,0.0,3.0,30,0.00,,CLR,0.00,VWS V14.00,2013-04-26 19:11:00,
2013-04-26 15:16:00,68.2,36.9,30.32,NW,309,0.0,0.0,32,0.00,,CLR,0.00,VWS V14.00,2013-04-26 19:16:00,
2013-04-26 15:21:00,68.3,35.6,30.31,NNE,17,0.0,7.0,30,0.00,,CLR,0.00,VWS V14.00,2013-04-26 19:21:00,
2013-04-26 15:26:00,68.3,36.9,30.31,North,359,0.0,7.0,32,0.00,,CLR,0.00,VWS V14.00,2013-04-26 19:26:00,
2013-04-26 15:31:00,68.5,36.0,30.31,ESE,112,4.7,4.7,30,0.00,,CLR,0.00,VWS V14.00,2013-04-26 19:31:00,
2013-04-26 15:36:00,69.2,36.5,30.31,East,79,0.0,4.7,30,0.00,,CLR,0.00,VWS V14.00,2013-04-26 19:36:00,
2013-04-26 15:41:00,68.9,35.1,30.31,East,97,0.0,6.8,29,0.00,,CLR,0.00,VWS V14.00,2013-04-26 19:41:00,
2013-04-26 15:46:00,68.8,35.0,30.30,SE,125,0.0,0.0,29,0.00,,CLR,0.00,VWS V14.00,2013-04-26 19:46:00,
2013-04-26 15:51:00,68.2,35.8,30.30,SE,125,0.0,0.0,30,0.00,,CLR,0.00,VWS V14.00,2013-04-26 19:51:00,
2013-04-26 15:56:00,68.1,35.9,30.30,SE,125,0.0,0.0,30,0.00,,CLR,0.00,VWS V14.00,2013-04-26 19:56:00,
2013-04-26 16:01:00,68.2,35.3,30.30,NNW,335,0.0,4.3,30,0.00,,CLR,0.00,VWS V14.00,2013-04-26 20:01:00,
2013-04-26 16:06:00,68.1,35.6,30.31,NW,304,4.7,6.0,30,0.00,,CLR,0.00,VWS V14.00,2013-04-26 20:06:00,
2013-04-26 16:11:00,67.8,35.1,30.30,West,280,0.0,6.0,30,0.00,,CLR,0.00,VWS V14.00,2013-04-26 20:11:00,
2013-04-26 16:16:00,68.3,35.3,30.30,WNW,298,0.0,0.0,30,0.00,,CLR,0.00,VWS V14.00,2013-04-26 20:16:00,
2013-04-26 16:21:00,67.2,34.3,30.30,West,273,0.0,8.0,30,0.00,,CLR,0.00,VWS V14.00,2013-04-26 20:21:00,
2013-04-26 16:26:00,66.9,34.9,30.30,NNW,328,0.0,9.3,30,0.00,,CLR,0.00,VWS V14.00,2013-04-26 20:26:00,
2013-04-26 16:31:00,67.4,35.6,30.30,NNW,333,4.2,4.6,31,0.00,,CLR,0.00,VWS V14.00,2013-04-26 20:31:00,
2013-04-26 16:36:00,67.0,35.2,30.28,West,269,0.0,5.9,31,0.00,,CLR,0.00,VWS V14.00,2013-04-26 20:36:00,
2013-04-26 16:41:00,66.9,34.3,30.28,SW,224,3.0,7.4,30,0.00,,CLR,0.00,VWS V14.00,2013-04-26 20:41:00,
2013-04-26 16:46:00,67.4,36.0,30.28,West,260,4.2,5.3,31,0.00,,CLR,0.00,VWS V14.00,2013-04-26 20:46:00,
2013-04-26 16:51:00,68.1,35.7,30.28,WSW,239,0.0,5.3,30,0.00,,CLR,0.00,VWS V14.00,2013-04-26 20:51:00,
2013-04-26 16:56:00,68.4,36.0,30.28,WSW,239,0.0,5.3,30,0.00,,CLR,0.00,VWS V14.00,2013-04-26 20:56:00,
2013-04-26 17:01:00,68.4,35.4,30.27,NNW,335,0.0,0.0,30,0.00,,CLR,0.00,VWS V14.00,2013-04-26 21:01:00,
2013-04-26 17:06:00,67.9,35.9,30.27,NW,314,0.0,6.1,31,0.00,,CLR,0.00,VWS V14.00,2013-04-26 21:06:00,
2013-04-26 17:11:00,68.1,36.7,30.27,NW,314,0.0,6.1,31,0.00,,CLR,0.00,VWS V14.00,2013-04-26 21:11:00,
2013-04-26 17:16:00,68.4,37.4,30.27,NW,314,0.0,0.0,32,0.00,,CLR,0.00,VWS V14.00,2013-04-26 21:16:00,
2013-04-26 17:21:00,68.5,38.7,30.27,NW,314,0.0,0.0,34,0.00,,CLR,0.00,VWS V14.00,2013-04-26 21:21:00,
2013-04-26 17:26:00,68.5,36.1,30.27,NW,314,0.0,0.0,30,0.00,,CLR,0.00,VWS V14.00,2013-04-26 21:26:00,
2013-04-26 17:31:00,68.4,36.2,30.27,NW,314,0.0,0.0,30,0.00,,CLR,0.00,VWS V14.00,2013-04-26 21:31:00,
2013-04-26 17:36:00,68.5,36.5,30.27,NW,314,0.0,0.0,31,0.00,,CLR,0.00,VWS V14.00,2013-04-26 21:36:00,
2013-04-26 17:41:00,68.5,37.4,30.27,NW,314,0.0,0.0,32,0.00,,CLR,0.00,VWS V14.00,2013-04-26 21:41:00,
2013-04-26 17:46:00,68.5,36.4,30.27,NW,314,0.0,0.0,31,0.00,,CLR,0.00,VWS V14.00,2013-04-26 21:46:00,
2013-04-26 17:51:00,68.4,35.8,30.27,ENE,77,0.0,5.7,30,0.00,,CLR,0.00,VWS V14.00,2013-04-26 21:51:00,
2013-04-26 17:56:00,68.4,37.3,30.27,ENE,77,0.0,5.7,32,0.00,,CLR,0.00,VWS V14.00,2013-04-26 21:56:00,
2013-04-26 18:01:00,68.4,37.3,30.27,ENE,77,0.0,0.0,32,0.00,,CLR,0.00,VWS V14.00,2013-04-26 22:01:00,
2013-04-26 18:06:00,68.0,38.2,30.27,ENE,77,0.0,0.0,34,0.00,,CLR,0.00,VWS V14.00,2013-04-26 22:06:00,
2013-04-26 18:11:00,67.7,37.7,30.27,ENE,77,0.0,0.0,33,0.00,,CLR,0.00,VWS V14.00,2013-04-26 22:11:00,
2013-04-26 18:16:00,67.2,36.4,30.27,ENE,77,0.0,0.0,32,0.00,,CLR,0.00,VWS V14.00,2013-04-26 22:16:00,
2013-04-26 18:21:00,67.0,37.6,30.27,ENE,77,0.0,0.0,34,0.00,,CLR,0.00,VWS V14.00,2013-04-26 22:21:00,
2013-04-26 18:26:00,66.7,37.5,30.27,ENE,77,0.0,0.0,34,0.00,,CLR,0.00,VWS V14.00,2013-04-26 22:26:00,
2013-04-26 18:31:00,66.1,36.8,30.27,ENE,77,0.0,0.0,34,0.00,,CLR,0.00,VWS V14.00,2013-04-26 22:31:00,
2013-04-26 18:36:00,66.8,37.8,30.27,ENE,77,0.0,0.0,34,0.00,,CLR,0.00,VWS V14.00,2013-04-26 22:36:00,
2013-04-26 18:41:00,66.7,39.1,30.28,ENE,77,0.0,0.0,36,0.00,,CLR,0.00,VWS V14.00,2013-04-26 22:41:00,
2013-04-26 18:46:00,66.3,39.1,30.27,ENE,77,0.0,0.0,37,0.00,,CLR,0.00,VWS V14.00,2013-04-26 22:46:00,
2013-04-26 18:51:00,64.3,38.1,30.28,ENE,77,0.0,0.0,38,0.00,,CLR,0.00,VWS V14.00,2013-04-26 22:51:00,
2013-04-26 18:56:00,61.7,35.2,30.28,ENE,77,0.0,0.0,37,0.00,,CLR,0.00,VWS V14.00,2013-04-26 22:56:00,
2013-04-26 19:01:00,65.8,38.8,30.28,ENE,77,0.0,0.0,37,0.00,,CLR,0.00,VWS V14.00,2013-04-26 23:01:00,
2013-04-26 19:06:00,65.4,39.5,30.28,ENE,77,0.0,0.0,38,0.00,,CLR,0.00,VWS V14.00,2013-04-26 23:06:00,
2013-04-26 19:11:00,65.0,39.7,30.28,ENE,77,0.0,0.0,39,0.00,,CLR,0.00,VWS V14.00,2013-04-26 23:11:00,
2013-04-26 19:16:00,63.6,38.4,30.28,ENE,77,0.0,0.0,39,0.00,,CLR,0.00,VWS V14.00,2013-04-26 23:16:00,
2013-04-26 19:21:00,62.2,36.9,30.28,ENE,77,0.0,0.0,39,0.00,,CLR,0.00,VWS V14.00,2013-04-26 23:21:00,
2013-04-26 19:26:00,60.0,35.8,30.28,ENE,77,0.0,0.0,40,0.00,,CLR,0.00,VWS V14.00,2013-04-26 23:26:00,
2013-04-26 19:31:00,59.3,35.2,30.28,ENE,77,0.0,0.0,40,0.00,,CLR,0.00,VWS V14.00,2013-04-26 23:31:00,
2013-04-26 19:36:00,61.5,38.2,30.28,ENE,77,0.0,0.0,42,0.00,,CLR,0.00,VWS V14.00,2013-04-26 23:36:00,
2013-04-26 19:41:00,62.6,39.9,30.28,ENE,77,0.0,0.0,43,0.00,,CLR,0.00,VWS V14.00,2013-04-26 23:41:00,
2013-04-26 19:46:00,62.7,39.9,30.29,ENE,77,0.0,0.0,43,0.00,,CLR,0.00,VWS V14.00,2013-04-26 23:46:00,
2013-04-26 19:51:00,61.8,39.4,30.29,ENE,77,0.0,0.0,44,0.00,,CLR,0.00,VWS V14.00,2013-04-26 23:51:00,
2013-04-26 20:05:00,58.9,38.1,30.29,ENE,77,0.0,0.0,46,0.00,,CLR,0.00,VWS V14.00,2013-04-27 00:05:00,
2013-04-26 20:11:00,57.8,37.9,30.29,ENE,77,0.0,0.0,47,0.00,,CLR,0.00,VWS V14.00,2013-04-27 00:11:00,
2013-04-26 20:16:00,57.1,37.5,30.30,ENE,77,0.0,0.0,48,0.00,,CLR,0.00,VWS V14.00,2013-04-27 00:16:00,
2013-04-26 20:21:00,58.2,38.9,30.30,ENE,77,0.0,0.0,49,0.00,,CLR,0.00,VWS V14.00,2013-04-27 00:21:00,
2013-04-26 20:26:00,59.6,40.7,30.30,ENE,77,0.0,0.0,49,0.00,,CLR,0.00,VWS V14.00,2013-04-27 00:26:00,
2013-04-26 20:31:00,59.9,40.9,30.30,ENE,77,0.0,0.0,49,0.00,,CLR,0.00,VWS V14.00,2013-04-27 00:31:00,
2013-04-26 20:36:00,59.4,40.1,30.30,ENE,77,0.0,0.0,49,0.00,,CLR,0.00,VWS V14.00,2013-04-27 00:36:00,
2013-04-26 20:41:00,58.7,39.5,30.30,ENE,77,0.0,0.0,49,0.00,,CLR,0.00,VWS V14.00,2013-04-27 00:41:00,
2013-04-26 20:46:00,57.3,38.0,30.30,ENE,77,0.0,0.0,48,0.00,,CLR,0.00,VWS V14.00,2013-04-27 00:46:00,
2013-04-26 20:51:00,57.1,38.8,30.31,ENE,77,0.0,0.0,50,0.00,,CLR,0.00,VWS V14.00,2013-04-27 00:51:00,
2013-04-26 20:56:00,56.7,39.2,30.31,ENE,77,0.0,0.0,52,0.00,,CLR,0.00,VWS V14.00,2013-04-27 00:56:00,
2013-04-26 21:01:00,56.4,39.4,30.31,ENE,77,0.0,0.0,53,0.00,,CLR,0.00,VWS V14.00,2013-04-27 01:01:00,
2013-04-26 21:06:00,57.4,40.1,30.31,ENE,77,0.0,0.0,52,0.00,,CLR,0.00,VWS V14.00,2013-04-27 01:06:00,
2013-04-26 21:11:00,57.4,40.6,30.31,ENE,77,0.0,0.0,53,0.00,,CLR,0.00,VWS V14.00,2013-04-27 01:11:00,
2013-04-26 21:16:00,57.7,41.8,30.31,ENE,77,0.0,0.0,55,0.00,,CLR,0.00,VWS V14.00,2013-04-27 01:16:00,
2013-04-26 21:21:00,57.7,41.8,30.31,ENE,77,0.0,0.0,55,0.00,,CLR,0.00,VWS V14.00,2013-04-27 01:21:00,
2013-04-26 21:26:00,56.6,41.1,30.31,ENE,77,0.0,0.0,56,0.00,,CLR,0.00,VWS V14.00,2013-04-27 01:26:00,
2013-04-26 21:31:00,56.2,41.0,30.31,ENE,77,0.0,0.0,56,0.00,,CLR,0.00,VWS V14.00,2013-04-27 01:31:00,
2013-04-26 21:36:00,56.4,41.5,30.32,ENE,77,0.0,0.0,57,0.00,,CLR,0.00,VWS V14.00,2013-04-27 01:36:00,
2013-04-26 21:41:00,56.2,40.8,30.32,ENE,77,0.0,0.0,56,0.00,,CLR,0.00,VWS V14.00,2013-04-27 01:41:00,
2013-04-26 21:46:00,56.3,41.0,30.32,ENE,77,0.0,0.0,56,0.00,,CLR,0.00,VWS V14.00,2013-04-27 01:46:00,
2013-04-26 21:51:00,56.1,40.2,30.32,ENE,77,0.0,0.0,55,0.00,,CLR,0.00,VWS V14.00,2013-04-27 01:51:00,
2013-04-26 21:56:00,55.8,40.1,30.31,ENE,77,0.0,0.0,56,0.00,,CLR,0.00,VWS V14.00,2013-04-27 01:56:00,
2013-04-26 22:01:00,55.8,40.4,30.31,ENE,77,0.0,0.0,56,0.00,,CLR,0.00,VWS V14.00,2013-04-27 02:01:00,
2013-04-26 22:06:00,56.0,40.7,30.31,ENE,77,0.0,0.0,56,0.00,,CLR,0.00,VWS V14.00,2013-04-27 02:06:00,
2013-04-26 22:11:00,56.1,40.8,30.31,ENE,77,0.0,0.0,56,0.00,,CLR,0.00,VWS V14.00,2013-04-27 02:11:00,
2013-04-26 22:16:00,56.1,41.1,30.31,ENE,77,0.0,0.0,57,0.00,,CLR,0.00,VWS V14.00,2013-04-27 02:16:00,
2013-04-26 22:21:00,55.9,41.1,30.31,ENE,77,0.0,0.0,58,0.00,,CLR,0.00,VWS V14.00,2013-04-27 02:21:00,
2013-04-26 22:26:00,56.1,41.2,30.31,ENE,77,0.0,0.0,57,0.00,,CLR,0.00,VWS V14.00,2013-04-27 02:26:00,
2013-04-26 22:31:00,55.8,40.9,30.31,ENE,77,0.0,0.0,57,0.00,,CLR,0.00,VWS V14.00,2013-04-27 02:31:00,
2013-04-26 22:36:00,56.1,40.8,30.31,ENE,77,0.0,0.0,56,0.00,,CLR,0.00,VWS V14.00,2013-04-27 02:36:00,
2013-04-26 22:41:00,55.4,39.9,30.31,ENE,77,0.0,0.0,56,0.00,,CLR,0.00,VWS V14.00,2013-04-27 02:41:00,
2013-04-26 22:46:00,55.7,40.3,30.31,ENE,77,0.0,0.0,56,0.00,,CLR,0.00,VWS V14.00,2013-04-27 02:46:00,
2013-04-26 22:51:00,56.2,41.2,30.31,ENE,77,0.0,0.0,57,0.00,,CLR,0.00,VWS V14.00,2013-04-27 02:51:00,
2013-04-26 22:56:00,55.6,40.9,30.31,ENE,77,0.0,0.0,58,0.00,,CLR,0.00,VWS V14.00,2013-04-27 02:56:00,
2013-04-26 23:01:00,55.9,41.3,30.30,ENE,77,0.0,0.0,58,0.00,,CLR,0.00,VWS V14.00,2013-04-27 03:01:00,
2013-04-26 23:06:00,55.8,41.2,30.30,ENE,77,0.0,0.0,58,0.00,,CLR,0.00,VWS V14.00,2013-04-27 03:06:00,
2013-04-26 23:11:00,55.6,41.5,30.31,ENE,77,0.0,0.0,59,0.00,,CLR,0.00,VWS V14.00,2013-04-27 03:11:00,
2013-04-26 23:16:00,55.3,41.5,30.30,ENE,77,0.0,0.0,60,0.00,,CLR,0.00,VWS V14.00,2013-04-27 03:16:00,
2013-04-26 23:21:00,54.9,41.2,30.30,ENE,77,0.0,0.0,60,0.00,,CLR,0.00,VWS V14.00,2013-04-27 03:21:00,
2013-04-26 23:26:00,55.5,42.0,30.30,ENE,77,0.0,0.0,60,0.00,,CLR,0.00,VWS V14.00,2013-04-27 03:26:00,
2013-04-26 23:31:00,55.8,42.3,30.30,ENE,77,0.0,0.0,60,0.00,,CLR,0.00,VWS V14.00,2013-04-27 03:31:00,
2013-04-26 23:36:00,55.3,41.8,30.29,ENE,77,0.0,0.0,60,0.00,,CLR,0.00,VWS V14.00,2013-04-27 03:36:00,
2013-04-26 23:41:00,55.4,42.2,30.29,ENE,77,0.0,0.0,61,0.00,,CLR,0.00,VWS V14.00,2013-04-27 03:41:00,
2013-04-26 23:46:00,54.9,41.7,30.29,ENE,77,0.0,0.0,61,0.00,,CLR,0.00,VWS V14.00,2013-04-27 03:46:00,
2013-04-26 23:51:00,55.6,42.0,30.30,ENE,77,0.0,0.0,60,0.00,,CLR,0.00,VWS V14.00,2013-04-27 03:51:00,
2013-04-26 23:56:00,55.4,41.9,30.29,ENE,77,0.0,0.0,60,0.00,,CLR,0.00,VWS V14.00,2013-04-27 03:56:00,